Time;durP1;ratioP1;P1;durP2;ratioP2;P2;SDS_P1;SDS_P2;PMS_P1;PMS_P2;Temp;Humidity;BMP_temperature;BMP_pressure;BME280_temperature;BME280_humidity;BME280_pressure;Samples;Min_cycle;Max_cycle;Signal;HPM_P1;HPM_P2
2022/07/28 00:01:47;;;;;;;;;3.67;2.67;;;;;20.63;43.40;101133.88;5094153;27;45851;-72
2022/07/28 00:04:13;;;;;;;;;2.33;2.00;;;;;20.59;42.82;101130.00;5079704;28;45606;-72
2022/07/28 00:06:38;;;;;;;;;3.00;3.00;;;;;20.54;43.27;101122.59;5079225;28;46161;-74
2022/07/28 00:09:03;;;;;;;;;2.00;2.00;;;;;20.51;43.36;101123.88;5078420;28;45347;-73
2022/07/28 00:11:28;;;;;;;;;2.00;2.00;;;;;20.47;43.09;101119.97;5079042;28;45372;-72
2022/07/28 00:13:54;;;;;;;;;2.33;2.33;;;;;20.41;43.34;101110.13;5079599;28;45379;-72
2022/07/28 00:16:20;;;;;;;;;3.00;3.00;;;;;20.35;43.13;101108.34;5085845;27;45284;-72
2022/07/28 00:18:45;;;;;;;;;2.00;2.00;;;;;20.34;43.43;101115.63;5080998;27;45322;-72
2022/07/28 00:21:11;;;;;;;;;2.33;2.00;;;;;20.31;43.51;101119.59;5079649;28;45294;-72
2022/07/28 00:23:37;;;;;;;;;3.67;3.67;;;;;20.30;43.39;101104.44;5078784;28;45372;-72
2022/07/28 00:26:03;;;;;;;;;3.00;3.00;;;;;20.22;43.12;101104.78;5079357;28;45261;-72
2022/07/28 00:28:28;;;;;;;;;3.00;3.00;;;;;20.22;44.26;101114.75;5079012;28;45445;-72
2022/07/28 00:30:54;;;;;;;;;2.00;2.00;;;;;20.10;44.12;101095.81;5079439;28;45529;-72
2022/07/28 00:33:20;;;;;;;;;1.67;1.67;;;;;20.11;43.88;101098.28;5087157;27;47979;-72
2022/07/28 00:35:45;;;;;;;;;2.00;2.00;;;;;20.08;44.36;101106.03;5077640;28;45991;-73
2022/07/28 00:38:10;;;;;;;;;3.00;3.00;;;;;20.06;44.50;101098.19;5079335;28;46233;-73
2022/07/28 00:43:20;;;;;;;;;2.67;2.67;;;;;19.95;44.30;101083.56;5078823;28;45329;-72
2022/07/28 00:45:46;;;;;;;;;3.00;2.00;;;;;19.96;44.46;101085.19;5094594;27;47338;-73
2022/07/28 00:48:11;;;;;;;;;3.33;3.33;;;;;19.93;44.65;101086.47;5082945;28;45522;-72
2022/07/28 00:50:42;;;;;;;;;2.33;2.33;;;;;19.95;45.01;101094.34;5082398;28;45348;-72
2022/07/28 00:53:07;;;;;;;;;2.33;2.33;;;;;19.89;44.77;101079.06;5082479;28;45491;-72
2022/07/28 00:55:33;;;;;;;;;2.00;2.00;;;;;19.88;44.86;101070.19;5082518;27;45338;-73
2022/07/28 00:57:59;;;;;;;;;2.67;2.67;;;;;19.85;44.76;101069.81;5093508;27;45383;-73
2022/07/28 01:00:25;;;;;;;;;2.00;2.00;;;;;19.78;44.95;101061.78;5082614;28;45445;-73
2022/07/28 01:02:51;;;;;;;;;2.33;1.33;;;;;19.80;44.84;101067.78;5082212;28;45429;-72
2022/07/28 01:05:16;;;;;;;;;3.00;2.00;;;;;19.78;45.33;101068.00;5082432;28;45339;-72
2022/07/28 01:07:47;;;;;;;;;4.00;3.00;;;;;19.78;45.08;101070.72;5082518;28;45298;-73
2022/07/28 01:10:34;;;;;;;;;2.67;2.00;;;;;19.74;45.73;101060.59;5082290;28;45476;-72
2022/07/28 01:13:05;;;;;;;;;2.00;2.00;;;;;19.76;45.87;101063.91;5082037;28;45337;-72
2022/07/28 01:15:36;;;;;;;;;1.67;1.67;;;;;19.71;45.07;101051.09;5082065;28;45270;-72
2022/07/28 01:18:15;;;;;;;;;2.00;2.00;;;;;19.74;45.55;101063.31;5069275;28;45390;-73
2022/07/28 01:20:51;;;;;;;;;1.00;1.00;;;;;19.68;45.89;101055.09;5068306;28;45248;-72
2022/07/28 01:23:31;;;;;;;;;2.67;2.67;;;;;19.74;45.76;101061.44;5081929;28;46756;-72
2022/07/28 01:26:06;;;;;;;;;2.67;2.67;;;;;19.76;45.53;101055.81;5085368;27;45358;-73
2022/07/28 01:28:49;;;;;;;;;3.67;3.67;;;;;19.75;45.71;101052.28;5080819;28;45466;-72
2022/07/28 01:31:22;;;;;;;;;3.00;3.00;;;;;19.76;45.99;101059.34;5086750;27;46517;-72
2022/07/28 01:33:53;;;;;;;;;1.00;1.00;;;;;19.77;45.73;101057.47;5081604;27;46479;-72
2022/07/28 01:36:27;;;;;;;;;2.00;2.00;;;;;19.75;45.83;101038.81;5082089;28;45317;-73
2022/07/28 01:38:53;;;;;;;;;2.00;2.00;;;;;19.75;46.22;101044.19;5081904;28;46194;-72
2022/07/28 01:41:22;;;;;;;;;2.67;2.67;;;;;19.77;46.14;101044.81;5081749;28;45479;-72
2022/07/28 01:43:56;;;;;;;;;3.00;3.00;;;;;19.78;45.96;101042.91;5080052;28;47740;-72
2022/07/28 01:46:23;;;;;;;;;2.00;2.00;;;;;19.74;45.85;101034.47;5081971;28;45376;-73
2022/07/28 01:48:50;;;;;;;;;2.67;2.67;;;;;19.72;46.14;101039.25;5091307;27;45276;-73
2022/07/28 01:51:17;;;;;;;;;2.00;2.00;;;;;19.71;46.05;101045.72;5080207;28;46306;-73
2022/07/28 01:53:44;;;;;;;;;1.33;1.33;;;;;19.73;46.23;101043.63;5081303;28;45478;-72
2022/07/28 01:56:14;;;;;;;;;3.33;3.00;;;;;19.64;46.26;101024.22;5080625;27;45256;-72
2022/07/28 01:58:43;;;;;;;;;2.33;2.33;;;;;19.68;46.54;101025.44;5084044;27;45355;-73
2022/07/28 02:01:10;;;;;;;;;2.00;2.00;;;;;19.70;46.58;101029.75;5081494;28;45256;-72
2022/07/28 02:03:38;;;;;;;;;3.33;3.33;;;;;19.68;46.34;101020.03;5081234;28;46707;-72
2022/07/28 02:06:05;;;;;;;;;2.00;2.00;;;;;19.68;46.57;101028.13;5080093;28;45363;-72
2022/07/28 02:08:34;;;;;;;;;3.00;3.00;;;;;19.67;46.36;101028.34;5079943;28;45438;-72
2022/07/28 02:13:47;;;;;;;;;1.67;1.67;;;;;19.64;46.51;101020.72;5081095;28;45357;-72
2022/07/28 02:16:14;;;;;;;;;2.67;2.67;;;;;19.64;46.34;101031.50;5086471;27;45208;-72
2022/07/28 02:18:44;;;;;;;;;2.67;2.67;;;;;19.65;46.56;101036.66;5083607;27;45295;-73
2022/07/28 02:21:11;;;;;;;;;3.33;1.00;;;;;19.60;46.47;101024.94;5081156;28;45473;-73
2022/07/28 02:23:38;;;;;;;;;2.00;2.00;;;;;19.57;46.83;101026.19;5080784;28;45506;-72
2022/07/28 02:26:08;;;;;;;;;3.67;2.33;;;;;19.58;46.94;101018.94;5081207;28;45195;-72
2022/07/28 02:28:35;;;;;;;;;2.67;2.67;;;;;19.54;46.80;101014.00;5081171;28;45317;-72
2022/07/28 02:31:07;;;;;;;;;3.00;3.00;;;;;19.54;46.69;101014.00;5081288;28;45382;-72
2022/07/28 02:33:34;;;;;;;;;1.33;1.33;;;;;19.56;47.13;101003.00;5090052;27;47195;-72
2022/07/28 02:36:11;;;;;;;;;2.00;2.00;;;;;19.50;46.75;101003.91;5076382;28;46083;-73
2022/07/28 02:38:45;;;;;;;;;1.67;1.67;;;;;19.44;46.52;100997.53;5087136;27;45314;-72
2022/07/28 02:41:26;;;;;;;;;1.67;1.67;;;;;19.51;46.56;101013.63;5067595;28;45416;-73
2022/07/28 02:43:56;;;;;;;;;2.00;2.00;;;;;19.51;46.86;101006.38;5080533;28;46113;-73
2022/07/28 02:46:26;;;;;;;;;1.00;1.00;;;;;19.53;47.00;101014.22;5084086;27;46287;-73
2022/07/28 02:48:56;;;;;;;;;2.00;2.00;;;;;19.53;47.07;101015.06;5080842;28;45397;-72
2022/07/28 02:51:25;;;;;;;;;2.00;2.00;;;;;19.52;46.98;101013.38;5082900;27;47217;-72
2022/07/28 02:53:52;;;;;;;;;1.67;1.67;;;;;19.46;46.94;100995.47;5080497;28;46548;-73
2022/07/28 02:56:18;;;;;;;;;2.00;2.00;;;;;19.46;47.32;101000.84;5080502;28;45317;-72
2022/07/28 02:58:45;;;;;;;;;2.00;2.00;;;;;19.50;47.28;101011.97;5080931;28;45336;-73
2022/07/28 03:01:11;;;;;;;;;1.00;1.00;;;;;19.46;47.52;100994.63;5080531;28;45449;-72
2022/07/28 03:03:37;;;;;;;;;3.33;2.67;;;;;19.48;47.47;101004.13;5080294;28;45309;-72
2022/07/28 03:06:03;;;;;;;;;2.33;2.33;;;;;19.49;47.37;101003.09;5080657;28;45201;-72
2022/07/28 03:08:28;;;;;;;;;2.00;2.00;;;;;19.50;47.74;101002.03;5078949;28;45187;-72
2022/07/28 03:11:11;;;;;;;;;2.00;2.00;;;;;19.52;47.52;100999.09;5085553;27;46499;-73
2022/07/28 03:13:36;;;;;;;;;2.00;2.00;;;;;19.47;47.49;101002.47;5079008;28;48419;-72
2022/07/28 03:16:02;;;;;;;;;1.67;1.67;;;;;19.47;47.35;100988.19;5084187;27;45409;-72
2022/07/28 03:18:28;;;;;;;;;2.00;2.00;;;;;19.47;47.40;100999.78;5083159;27;45396;-72
2022/07/28 03:20:57;;;;;;;;;2.00;2.00;;;;;19.52;47.89;101015.28;5080539;28;45231;-72
2022/07/28 03:23:28;;;;;;;;;2.00;2.00;;;;;19.45;48.05;101009.97;5080064;28;45314;-72
2022/07/28 03:25:59;;;;;;;;;1.00;1.00;;;;;19.40;47.84;101009.84;5080141;28;45378;-73
2022/07/28 03:28:26;;;;;;;;;3.00;2.00;;;;;19.33;48.05;101006.41;5089774;27;45317;-72
2022/07/28 03:30:59;;;;;;;;;2.67;2.67;;;;;19.36;48.54;101017.53;5080265;28;45408;-73
2022/07/28 03:33:25;;;;;;;;;2.00;2.00;;;;;19.27;48.44;100997.34;5078676;28;47461;-73
2022/07/28 03:35:52;;;;;;;;;1.67;1.00;;;;;19.26;48.43;101001.94;5079949;27;45322;-72
2022/07/28 03:38:39;;;;;;;;;2.33;2.33;;;;;19.23;48.51;101002.38;5080233;28;45274;-73
2022/07/28 03:41:07;;;;;;;;;2.00;1.00;;;;;19.20;48.67;101002.81;5078580;28;47376;-73
2022/07/28 03:43:33;;;;;;;;;3.67;3.67;;;;;19.15;48.76;101005.34;5078423;28;47323;-73
2022/07/28 03:45:59;;;;;;;;;2.67;2.00;;;;;19.20;48.95;101008.22;5094086;27;45352;-72
2022/07/28 03:48:31;;;;;;;;;1.33;1.33;;;;;19.13;48.95;101002.88;5080052;28;45380;-72
2022/07/28 03:50:57;;;;;;;;;2.00;2.00;;;;;19.18;49.19;101004.91;5079819;28;45711;-73
2022/07/28 03:53:28;;;;;;;;;1.00;1.00;;;;;19.17;49.17;101006.81;5079644;28;46243;-73
2022/07/28 03:55:54;;;;;;;;;3.00;3.00;;;;;19.15;48.86;101008.06;5079930;28;45227;-73
2022/07/28 03:58:25;;;;;;;;;2.00;1.67;;;;;19.16;48.77;101004.31;5079705;28;45539;-72
2022/07/28 04:00:50;;;;;;;;;2.67;2.00;;;;;19.17;48.74;101008.66;5079910;28;45372;-73
2022/07/28 04:03:17;;;;;;;;;2.33;2.33;;;;;19.08;48.56;101002.75;5079364;28;45932;-73
2022/07/28 04:05:43;;;;;;;;;1.33;1.33;;;;;19.02;48.70;100990.16;5079812;28;45219;-73
2022/07/28 04:08:08;;;;;;;;;1.00;1.00;;;;;19.05;48.52;100995.94;5079561;28;45223;-71
2022/07/28 04:10:33;;;;;;;;;2.00;2.00;;;;;19.06;48.44;100999.41;5079491;28;45330;-72
2022/07/28 04:12:59;;;;;;;;;2.00;2.00;;;;;19.07;49.23;100998.41;5079417;28;45594;-73
2022/07/28 04:15:26;;;;;;;;;2.00;2.00;;;;;19.07;49.61;101006.47;5079320;28;45464;-73
2022/07/28 04:17:53;;;;;;;;;2.00;2.00;;;;;19.03;49.34;101008.78;5087492;27;45431;-73
2022/07/28 04:20:20;;;;;;;;;2.00;2.00;;;;;19.05;49.64;101009.38;5078660;28;45496;-73
2022/07/28 04:22:47;;;;;;;;;2.00;2.00;;;;;18.96;49.19;101004.50;5079039;28;46429;-73
2022/07/28 04:25:14;;;;;;;;;3.00;3.00;;;;;19.00;49.54;101013.78;5079294;28;45344;-73
2022/07/28 04:27:41;;;;;;;;;2.00;2.00;;;;;18.91;50.09;101002.47;5079363;28;45355;-73
2022/07/28 04:30:12;;;;;;;;;2.00;2.00;;;;;18.91;50.03;101005.19;5079236;28;45646;-73
2022/07/28 04:32:41;;;;;;;;;1.00;1.00;;;;;18.91;49.88;101005.19;5081127;27;47713;-73
2022/07/28 04:35:07;;;;;;;;;2.00;2.00;;;;;18.84;49.73;100997.19;5078032;28;45506;-73
2022/07/28 04:37:33;;;;;;;;;2.67;1.00;;;;;18.83;50.29;100997.41;5079037;28;45370;-73
2022/07/28 04:39:58;;;;;;;;;2.00;2.00;;;;;18.87;50.16;101001.28;5079261;28;45424;-73
2022/07/28 04:42:24;;;;;;;;;2.33;2.00;;;;;18.84;50.20;100999.03;5078807;28;45397;-73
2022/07/28 04:44:50;;;;;;;;;3.67;3.67;;;;;18.84;50.04;101001.75;5079185;28;45342;-73
2022/07/28 04:47:15;;;;;;;;;2.33;2.00;;;;;18.79;50.39;100989.78;5079126;28;45340;-73
2022/07/28 04:49:41;;;;;;;;;4.00;3.00;;;;;18.84;51.36;100996.34;5079120;28;45274;-73
2022/07/28 04:52:07;;;;;;;;;2.00;2.00;;;;;18.83;51.06;100998.25;5078878;28;45631;-73
2022/07/28 04:54:33;;;;;;;;;1.00;1.00;;;;;18.84;50.05;101002.56;5078730;28;45382;-73
2022/07/28 04:56:58;;;;;;;;;2.00;1.00;;;;;18.89;50.20;100993.81;5079024;28;45302;-73
2022/07/28 04:59:24;;;;;;;;;2.00;2.00;;;;;18.92;50.13;100996.06;5078898;28;45246;-72
2022/07/28 05:01:49;;;;;;;;;3.00;3.00;;;;;18.95;49.30;101000.19;5093667;27;47909;-72
2022/07/28 05:04:15;;;;;;;;;3.33;3.33;;;;;18.93;49.26;101000.41;5078729;28;45201;-72
2022/07/28 05:06:40;;;;;;;;;3.67;3.67;;;;;18.86;49.52;100983.50;5079016;28;45881;-73
2022/07/28 05:09:05;;;;;;;;;4.00;3.00;;;;;18.92;49.35;100993.38;5078776;28;45472;-73
2022/07/28 05:11:31;;;;;;;;;4.00;3.00;;;;;18.91;49.64;100992.53;5088633;27;47224;-73
2022/07/28 05:13:56;;;;;;;;;4.00;3.33;;;;;18.92;49.76;100993.38;5077604;28;45326;-73
2022/07/28 05:16:21;;;;;;;;;3.33;3.33;;;;;18.88;49.54;100993.00;5085463;27;45307;-73
2022/07/28 05:18:47;;;;;;;;;2.00;2.00;;;;;18.96;49.75;100996.44;5079836;27;45292;-73
2022/07/28 05:21:12;;;;;;;;;2.33;2.00;;;;;18.96;49.54;100991.88;5077183;28;52007;-73
2022/07/28 05:23:37;;;;;;;;;1.33;1.33;;;;;18.98;49.78;100995.19;5078398;28;45306;-73
2022/07/28 05:26:03;;;;;;;;;3.00;3.00;;;;;19.06;49.95;101002.13;5077237;28;45319;-73
2022/07/28 05:28:29;;;;;;;;;3.00;3.00;;;;;19.09;50.25;101001.69;5078461;28;45497;-73
2022/07/28 05:30:54;;;;;;;;;2.33;2.00;;;;;19.05;50.87;100987.84;5080865;27;47322;-73
2022/07/28 05:33:20;;;;;;;;;3.00;3.00;;;;;19.16;50.84;101007.81;5080904;28;45509;-73
2022/07/28 05:35:53;;;;;;;;;3.00;3.00;;;;;19.15;50.58;100989.19;5081804;28;45407;-73
2022/07/28 05:38:18;;;;;;;;;3.00;3.00;;;;;19.19;50.45;100998.50;5081949;28;45417;-73
2022/07/28 05:40:43;;;;;;;;;5.33;5.00;;;;;19.25;50.47;100994.06;5080090;28;48303;-73
2022/07/28 05:43:09;;;;;;;;;5.00;5.00;;;;;19.29;50.81;100992.56;5081805;28;45440;-73
2022/07/28 05:45:34;;;;;;;;;5.33;5.33;;;;;19.34;49.66;100981.94;5081790;28;45366;-73
2022/07/28 05:47:59;;;;;;;;;10.33;7.00;;;;;19.39;50.30;100998.22;5084284;27;46038;-73
2022/07/28 05:50:25;;;;;;;;;7.00;5.67;;;;;19.39;49.59;100990.13;5081719;28;45395;-73
2022/07/28 05:52:50;;;;;;;;;6.00;6.00;;;;;19.42;49.99;100992.38;5081273;28;45288;-73
2022/07/28 05:55:17;;;;;;;;;4.67;4.67;;;;;19.52;50.16;101005.31;5081887;27;45156;-73
2022/07/28 05:57:43;;;;;;;;;5.00;5.00;;;;;19.52;49.87;100997.22;5081602;28;45153;-73
2022/07/28 06:00:12;;;;;;;;;3.67;3.67;;;;;19.52;50.02;101002.59;5081179;28;45351;-73
2022/07/28 06:02:38;;;;;;;;;4.67;4.00;;;;;19.51;49.66;100997.44;5081553;28;45365;-73
2022/07/28 06:05:05;;;;;;;;;5.00;3.33;;;;;19.52;49.57;100999.09;5094790;27;45366;-73
2022/07/28 06:07:31;;;;;;;;;6.00;5.00;;;;;19.49;49.54;100989.63;5081309;28;46106;-73
2022/07/28 06:09:56;;;;;;;;;4.00;3.67;;;;;19.53;49.80;100998.06;5081135;28;46512;-73
2022/07/28 06:12:21;;;;;;;;;3.00;3.00;;;;;19.57;49.81;100996.53;5081342;28;45178;-73
2022/07/28 06:14:46;;;;;;;;;2.67;2.67;;;;;19.57;50.11;100995.72;5081593;28;45207;-73
2022/07/28 06:17:13;;;;;;;;;4.67;4.33;;;;;19.63;49.94;100994.81;5094935;27;45414;-73
2022/07/28 06:19:39;;;;;;;;;7.33;6.67;;;;;19.72;49.89;101004.22;5089770;27;45430;-73
2022/07/28 06:22:05;;;;;;;;;6.67;6.67;;;;;19.72;49.60;100995.31;5080953;28;45304;-73
2022/07/28 06:24:30;;;;;;;;;5.33;5.00;;;;;19.74;48.93;100990.50;5076459;28;45487;-73
2022/07/28 06:26:56;;;;;;;;;7.67;6.00;;;;;19.74;49.00;100983.25;5076359;28;45355;-73
2022/07/28 06:29:23;;;;;;;;;8.00;7.00;;;;;19.80;48.83;101006.59;5081041;28;46203;-73
2022/07/28 06:31:48;;;;;;;;;8.00;8.00;;;;;19.80;49.01;101000.38;5081177;28;45303;-73
2022/07/28 06:34:14;;;;;;;;;8.00;8.00;;;;;19.83;49.08;101008.00;5080877;28;45349;-73
2022/07/28 06:36:39;;;;;;;;;7.00;7.00;;;;;19.84;49.25;101006.13;5088438;27;47040;-73
2022/07/28 06:39:05;;;;;;;;;8.67;7.33;;;;;19.88;49.15;101000.06;5079455;28;47114;-73
2022/07/28 06:41:30;;;;;;;;;7.00;6.00;;;;;19.96;49.31;101000.78;5085364;27;46148;-73
2022/07/28 06:43:55;;;;;;;;;8.00;6.33;;;;;19.99;48.90;101001.13;5080622;28;45341;-74
2022/07/28 06:46:21;;;;;;;;;5.33;5.33;;;;;20.00;49.13;100997.38;5080967;28;48181;-73
2022/07/28 06:48:47;;;;;;;;;5.33;5.00;;;;;20.03;49.36;101005.03;5089877;27;46687;-73
2022/07/28 06:51:17;;;;;;;;;6.00;5.00;;;;;20.08;49.78;101011.63;5080751;28;45315;-73
2022/07/28 06:53:43;;;;;;;;;3.33;3.00;;;;;20.12;49.91;101000.13;5079397;28;45427;-73
2022/07/28 06:56:08;;;;;;;;;3.33;3.33;;;;;20.13;49.18;100998.25;5080314;27;45678;-73
2022/07/28 06:58:33;;;;;;;;;5.67;5.00;;;;;20.24;49.25;101004.72;5080657;28;45385;-73
2022/07/28 07:00:59;;;;;;;;;5.00;5.00;;;;;20.20;48.84;101003.53;5088244;27;45390;-73
2022/07/28 07:03:24;;;;;;;;;6.33;6.33;;;;;20.17;48.92;101004.81;5080576;28;45371;-73
2022/07/28 07:05:49;;;;;;;;;5.00;5.00;;;;;20.17;48.98;101007.50;5080617;28;45364;-73
2022/07/28 07:08:15;;;;;;;;;5.00;5.00;;;;;20.22;49.38;100996.84;5091609;27;46897;-73
2022/07/28 07:10:40;;;;;;;;;5.33;5.00;;;;;20.29;49.36;101002.97;5079033;28;46067;-73
2022/07/28 07:13:05;;;;;;;;;4.33;4.00;;;;;20.33;48.98;101006.03;5080449;28;45309;-73
2022/07/28 07:15:31;;;;;;;;;4.67;4.67;;;;;20.36;49.08;101002.84;5080400;28;45285;-73
2022/07/28 07:17:56;;;;;;;;;4.67;4.67;;;;;20.40;49.25;101006.72;5088218;27;45343;-73
2022/07/28 07:20:21;;;;;;;;;6.33;6.00;;;;;20.49;48.64;101012.59;5080228;28;45214;-73
2022/07/28 07:22:47;;;;;;;;;6.00;6.00;;;;;20.54;48.82;101010.03;5080296;28;45695;-73
2022/07/28 07:25:15;;;;;;;;;4.33;4.33;;;;;20.58;49.16;101013.06;5078700;28;46326;-73
2022/07/28 07:27:40;;;;;;;;;6.67;6.00;;;;;20.66;49.21;101012.72;5082608;27;48396;-73
2022/07/28 07:30:07;;;;;;;;;6.33;6.33;;;;;20.72;49.28;101010.97;5078783;28;45394;-73
2022/07/28 07:32:34;;;;;;;;;5.33;5.33;;;;;20.82;48.59;101018.44;5080284;28;45274;-73
2022/07/28 07:34:59;;;;;;;;;6.33;6.33;;;;;20.87;48.74;101001.53;5079980;28;45466;-73
2022/07/28 07:37:24;;;;;;;;;6.00;6.00;;;;;20.93;48.27;101000.63;5093564;27;46642;-74
2022/07/28 07:39:50;;;;;;;;;8.00;7.67;;;;;21.07;48.35;101001.16;5079998;28;45329;-73
2022/07/28 07:42:16;;;;;;;;;8.00;6.67;;;;;21.15;47.90;101000.81;5091436;27;45367;-73
2022/07/28 07:44:41;;;;;;;;;6.33;6.33;;;;;21.25;47.90;101002.06;5079825;28;45473;-73
2022/07/28 07:47:10;;;;;;;;;7.67;6.67;;;;;21.36;47.79;100995.78;5079973;28;45266;-73
2022/07/28 07:49:39;;;;;;;;;6.00;6.00;;;;;21.45;47.71;100993.53;5081631;27;45748;-73
2022/07/28 07:52:04;;;;;;;;;5.00;5.00;;;;;21.59;47.61;100996.78;5078520;28;45596;-74
2022/07/28 07:54:29;;;;;;;;;7.00;7.00;;;;;21.69;47.20;101001.53;5078358;28;45464;-73
2022/07/28 07:56:55;;;;;;;;;7.00;6.00;;;;;21.80;46.98;100997.16;5079872;28;45520;-73
2022/07/28 07:59:20;;;;;;;;;6.00;6.00;;;;;21.90;47.07;101001.91;5079596;28;45293;-73
2022/07/28 08:01:49;;;;;;;;;6.00;6.00;;;;;22.05;46.17;101004.88;5079687;28;45419;-73
2022/07/28 08:04:15;;;;;;;;;5.00;5.00;;;;;22.14;46.26;100999.06;5079663;28;45432;-73
2022/07/28 08:06:41;;;;;;;;;6.33;6.33;;;;;22.27;46.51;100998.72;5079248;28;45405;-73
2022/07/28 08:09:06;;;;;;;;;6.33;6.00;;;;;22.35;45.70;100997.50;5079637;28;45412;-73
2022/07/28 08:11:31;;;;;;;;;7.67;7.00;;;;;22.44;45.82;100997.88;5079268;28;45742;-73
2022/07/28 08:13:57;;;;;;;;;6.67;6.67;;;;;22.50;45.80;100998.78;5079630;28;45485;-73
2022/07/28 08:16:23;;;;;;;;;5.33;5.33;;;;;22.59;45.87;100996.53;5086069;27;46506;-73
2022/07/28 08:18:48;;;;;;;;;5.00;4.00;;;;;22.77;45.22;101014.34;5080345;27;45437;-73
2022/07/28 08:21:15;;;;;;;;;7.00;6.33;;;;;22.88;45.36;101009.91;5079977;28;45299;-73
2022/07/28 08:23:40;;;;;;;;;7.67;7.00;;;;;22.91;45.22;100993.97;5079167;28;45492;-74
2022/07/28 08:26:06;;;;;;;;;4.33;4.33;;;;;23.13;45.86;100998.56;5083453;27;47038;-74
2022/07/28 08:28:32;;;;;;;;;6.00;6.00;;;;;23.26;45.25;101005.50;5079431;28;45212;-74
2022/07/28 08:30:57;;;;;;;;;7.00;6.00;;;;;23.33;44.70;101000.69;5079450;28;45377;-74
2022/07/28 08:33:22;;;;;;;;;6.00;6.00;;;;;23.33;44.78;100991.72;5079567;28;45437;-74
2022/07/28 08:35:48;;;;;;;;;5.00;5.00;;;;;23.26;44.17;100983.81;5093559;27;47232;-74
2022/07/28 08:38:14;;;;;;;;;6.33;6.33;;;;;23.29;44.30;100990.63;5079374;28;45202;-74
2022/07/28 08:40:41;;;;;;;;;5.00;5.00;;;;;23.26;44.82;100985.69;5091251;27;45333;-74
2022/07/28 08:43:21;;;;;;;;;5.33;5.33;;;;;23.34;44.67;100996.06;5082784;27;46085;-74
2022/07/28 08:45:48;;;;;;;;;7.00;7.00;;;;;23.40;44.52;100997.81;5077704;28;47348;-74
2022/07/28 08:48:15;;;;;;;;;6.00;6.00;;;;;23.51;44.63;100992.47;5083739;27;45432;-74
2022/07/28 08:50:43;;;;;;;;;6.67;6.67;;;;;23.53;44.01;100982.22;5078993;28;45353;-73
2022/07/28 08:53:08;;;;;;;;;4.67;4.67;;;;;23.65;44.08;100984.75;5078904;28;45346;-73
2022/07/28 08:55:34;;;;;;;;;8.00;8.00;;;;;23.66;43.75;100989.94;5078978;27;45595;-73
2022/07/28 08:58:01;;;;;;;;;7.00;7.00;;;;;23.69;44.14;100992.13;5078604;28;45538;-73
2022/07/28 09:00:27;;;;;;;;;7.00;7.00;;;;;23.71;43.69;100992.69;5079158;28;45398;-73
2022/07/28 09:02:54;;;;;;;;;8.00;5.00;;;;;23.77;43.23;100993.56;5078750;28;45411;-73
2022/07/28 09:05:21;;;;;;;;;6.00;6.00;;;;;23.83;43.46;100995.22;5095497;27;46160;-74
2022/07/28 09:07:51;;;;;;;;;6.00;5.33;;;;;23.91;43.40;100990.44;5082376;28;45448;-74
2022/07/28 09:10:17;;;;;;;;;8.33;6.67;;;;;24.00;42.93;100998.91;5096726;27;45160;-73
2022/07/28 09:12:43;;;;;;;;;6.00;6.00;;;;;24.02;42.93;100984.00;5081952;28;45406;-74
2022/07/28 09:15:10;;;;;;;;;6.33;6.00;;;;;24.07;42.44;100984.03;5093805;27;47074;-73
2022/07/28 09:17:36;;;;;;;;;6.00;6.00;;;;;24.09;43.27;100973.72;5090168;27;45379;-74
2022/07/28 09:20:03;;;;;;;;;5.00;5.00;;;;;24.28;42.83;100992.38;5080850;28;45434;-73
2022/07/28 09:22:31;;;;;;;;;6.00;6.00;;;;;24.35;42.81;100983.97;5082061;28;45381;-73
2022/07/28 09:24:57;;;;;;;;;4.00;4.00;;;;;24.40;42.22;100975.88;5082042;28;45775;-74
2022/07/28 09:27:22;;;;;;;;;7.33;7.00;;;;;24.52;42.02;100975.69;5081868;28;45334;-74
2022/07/28 09:29:59;;;;;;;;;7.00;6.00;;;;;24.60;41.97;100979.78;5082321;28;45302;-73
2022/07/28 09:32:25;;;;;;;;;7.67;7.00;;;;;24.76;41.96;100977.97;5082031;28;45326;-74
2022/07/28 09:34:51;;;;;;;;;6.67;6.67;;;;;24.88;42.25;100976.94;5081945;28;45343;-73
2022/07/28 09:37:21;;;;;;;;;5.33;5.33;;;;;25.01;41.89;100973.75;5081980;28;45410;-74
2022/07/28 09:39:48;;;;;;;;;5.00;5.00;;;;;25.09;41.04;100970.53;5082064;28;45268;-73
2022/07/28 09:42:14;;;;;;;;;4.00;4.00;;;;;25.17;41.32;100963.72;5080265;28;46258;-73
2022/07/28 09:44:40;;;;;;;;;7.00;6.33;;;;;25.22;40.83;100973.78;5076723;28;48468;-73
2022/07/28 09:47:26;;;;;;;;;6.33;6.00;;;;;25.29;40.66;100971.63;5087864;27;45551;-74
2022/07/28 09:49:52;;;;;;;;;3.33;3.33;;;;;25.41;40.18;100965.94;5070354;28;45313;-74
2022/07/28 09:52:35;;;;;;;;;7.00;5.00;;;;;25.50;40.51;100965.44;5080149;28;45427;-73
2022/07/28 09:55:07;;;;;;;;;4.67;4.67;;;;;25.56;39.70;100965.16;5081489;28;45310;-74
2022/07/28 09:57:34;;;;;;;;;6.00;5.33;;;;;25.59;39.54;100953.75;5081617;28;45456;-74
2022/07/28 10:00:00;;;;;;;;;5.00;5.00;;;;;25.65;39.83;100954.56;5095203;27;45304;-73
2022/07/28 10:02:30;;;;;;;;;6.33;5.67;;;;;25.70;39.02;100949.16;5081615;28;45369;-73
2022/07/28 10:04:56;;;;;;;;;3.67;3.67;;;;;25.74;39.65;100952.16;5081223;28;46166;-73
2022/07/28 10:07:22;;;;;;;;;4.33;4.33;;;;;25.79;38.87;100957.56;5081541;28;45312;-74
2022/07/28 10:10:07;;;;;;;;;4.00;4.00;;;;;25.91;38.84;100960.03;5091473;27;45263;-73
2022/07/28 10:12:35;;;;;;;;;5.67;4.33;;;;;25.99;38.63;100961.38;5080609;28;45312;-74
2022/07/28 10:16:09;;;;;;;;;3.00;3.00;;;;;26.07;37.86;100958.09;5081144;28;46713;-74
2022/07/28 10:17:57;;;;;;;;;3.67;3.67;;;;;26.20;37.81;100955.91;5088321;27;45401;-73
2022/07/28 10:20:23;;;;;;;;;4.50;4.00;;;;;26.33;36.83;100960.81;5081287;28;45275;-74
2022/07/28 10:22:51;;;;;;;;;6.67;5.00;;;;;26.50;37.39;100951.50;5086427;27;46276;-74
2022/07/28 10:25:20;;;;;;;;;5.00;4.00;;;;;26.67;36.60;100950.34;5081011;28;46208;-73
2022/07/28 10:27:47;;;;;;;;;2.67;2.67;;;;;26.86;37.41;100953.28;5080960;28;45366;-73
2022/07/28 10:30:13;;;;;;;;;3.67;2.67;;;;;26.97;35.78;100952.13;5081316;28;45297;-73
2022/07/28 10:32:44;;;;;;;;;4.33;3.00;;;;;27.09;35.31;100951.00;5083302;27;45531;-73
2022/07/28 10:35:15;;;;;;;;;3.67;3.67;;;;;27.30;35.31;100957.16;5076344;27;46332;-73
2022/07/28 10:37:58;;;;;;;;;4.00;2.67;;;;;27.44;35.34;100948.31;5067122;28;45960;-74
2022/07/28 10:40:30;;;;;;;;;2.00;2.00;;;;;27.64;34.98;100944.63;5091081;27;45344;-74
2022/07/28 10:42:57;;;;;;;;;2.00;2.00;;;;;27.79;34.99;100940.97;5080814;28;45409;-74
2022/07/28 10:45:22;;;;;;;;;4.00;4.00;;;;;27.94;33.77;100942.75;5080785;28;45384;-74
2022/07/28 10:47:48;;;;;;;;;3.00;3.00;;;;;28.17;34.11;100953.19;5080795;28;45284;-74
2022/07/28 10:50:15;;;;;;;;;4.00;3.00;;;;;28.40;34.13;100946.13;5076279;28;45421;-74
2022/07/28 10:52:42;;;;;;;;;4.00;4.00;;;;;28.52;34.06;100944.91;5076837;28;45484;-74
2022/07/28 10:55:22;;;;;;;;;2.67;2.67;;;;;28.53;33.48;100950.09;5080649;28;45683;-74
2022/07/28 10:57:59;;;;;;;;;4.33;4.33;;;;;28.43;31.31;100942.00;5080668;28;45296;-74
2022/07/28 11:00:26;;;;;;;;;6.00;6.00;;;;;28.42;31.66;100949.38;5083549;27;45316;-74
2022/07/28 11:03:00;;;;;;;;;4.67;4.67;;;;;28.40;32.86;100957.06;5080576;28;45839;-74
2022/07/28 11:05:40;;;;;;;;;3.00;2.00;;;;;28.38;32.23;100940.16;5079155;28;47345;-74
2022/07/28 11:08:07;;;;;;;;;4.00;2.67;;;;;28.52;32.04;100945.72;5080385;28;45450;-74
2022/07/28 11:10:44;;;;;;;;;4.67;4.67;;;;;28.61;31.70;100943.13;5080181;28;45256;-74
2022/07/28 11:13:23;;;;;;;;;3.67;3.67;;;;;28.64;28.79;100934.34;5080331;28;45568;-74
2022/07/28 11:15:49;;;;;;;;;3.00;2.67;;;;;28.76;31.12;100947.59;5085840;27;48307;-74
2022/07/28 11:18:14;;;;;;;;;3.00;2.00;;;;;28.82;30.72;100943.69;5086334;27;45338;-74
2022/07/28 11:20:52;;;;;;;;;3.00;3.00;;;;;28.92;30.40;100940.03;5080688;28;45345;-74
2022/07/28 11:23:35;;;;;;;;;2.00;2.00;;;;;29.09;30.02;100946.94;5080308;28;45623;-74
2022/07/28 11:26:19;;;;;;;;;3.67;3.00;;;;;29.29;30.02;100945.81;5080361;28;46758;-74
2022/07/28 11:28:59;;;;;;;;;3.00;3.00;;;;;29.53;30.06;100942.16;5091046;27;45284;-74
2022/07/28 11:31:45;;;;;;;;;1.33;1.33;;;;;29.75;29.69;100938.00;5080363;28;45313;-73
2022/07/28 11:34:22;;;;;;;;;5.00;5.00;;;;;29.96;29.03;100940.38;5069236;27;45632;-75